sensor_id;sensor_type;location;lat;lon;timestamp;P1;durP1;ratioP1;P2;durP2;ratioP2
69170;SDS011;56279;47.902;12.308;2022-08-21T00:00:57;3.38;;;1.90;;
69170;SDS011;56279;47.902;12.308;2022-08-21T00:03:03;5.35;;;2.53;;
69170;SDS011;56279;47.902;12.308;2022-08-21T00:05:10;3.87;;;2.10;;
69170;SDS011;56279;47.902;12.308;2022-08-21T00:07:12;4.50;;;2.35;;
69170;SDS011;56279;47.902;12.308;2022-08-21T00:09:14;4.20;;;2.25;;
69170;SDS011;56279;47.902;12.308;2022-08-21T00:11:16;3.47;;;1.83;;
69170;SDS011;56279;47.902;12.308;2022-08-21T00:13:23;3.65;;;2.08;;
69170;SDS011;56279;47.902;12.308;2022-08-21T00:15:38;3.83;;;2.03;;
69170;SDS011;56279;47.902;12.308;2022-08-21T00:17:44;3.22;;;1.95;;
69170;SDS011;56279;47.902;12.308;2022-08-21T00:19:50;5.00;;;2.33;;
69170;SDS011;56279;47.902;12.308;2022-08-21T00:21:52;3.53;;;1.95;;
69170;SDS011;56279;47.902;12.308;2022-08-21T00:23:54;4.10;;;2.20;;
69170;SDS011;56279;47.902;12.308;2022-08-21T00:25:56;3.23;;;1.70;;
69170;SDS011;56279;47.902;12.308;2022-08-21T00:27:57;3.83;;;2.00;;
69170;SDS011;56279;47.902;12.308;2022-08-21T00:29:59;3.10;;;1.88;;
69170;SDS011;56279;47.902;12.308;2022-08-21T00:32:04;3.38;;;2.00;;
69170;SDS011;56279;47.902;12.308;2022-08-21T00:34:06;3.58;;;1.90;;
69170;SDS011;56279;47.902;12.308;2022-08-21T00:36:11;3.17;;;1.80;;
69170;SDS011;56279;47.902;12.308;2022-08-21T00:38:13;3.75;;;2.20;;
69170;SDS011;56279;47.902;12.308;2022-08-21T00:40:26;4.22;;;2.20;;
69170;SDS011;56279;47.902;12.308;2022-08-21T00:42:34;4.28;;;2.30;;
69170;SDS011;56279;47.902;12.308;2022-08-21T00:44:39;4.00;;;2.25;;
69170;SDS011;56279;47.902;12.308;2022-08-21T00:46:41;4.60;;;2.23;;
69170;SDS011;56279;47.902;12.308;2022-08-21T00:48:43;4.82;;;2.60;;
69170;SDS011;56279;47.902;12.308;2022-08-21T00:51:07;4.22;;;2.28;;
69170;SDS011;56279;47.902;12.308;2022-08-21T00:53:16;5.05;;;2.20;;
69170;SDS011;56279;47.902;12.308;2022-08-21T00:56:24;4.32;;;2.00;;
69170;SDS011;56279;47.902;12.308;2022-08-21T00:58:39;3.90;;;2.00;;
69170;SDS011;56279;47.902;12.308;2022-08-21T01:01:02;4.25;;;2.40;;
69170;SDS011;56279;47.902;12.308;2022-08-21T01:03:19;4.68;;;2.55;;
69170;SDS011;56279;47.902;12.308;2022-08-21T01:05:41;4.72;;;2.38;;
69170;SDS011;56279;47.902;12.308;2022-08-21T01:07:46;3.58;;;2.20;;
69170;SDS011;56279;47.902;12.308;2022-08-21T01:09:50;4.27;;;1.90;;
69170;SDS011;56279;47.902;12.308;2022-08-21T01:11:57;3.38;;;1.90;;
69170;SDS011;56279;47.902;12.308;2022-08-21T01:13:59;3.25;;;2.03;;
69170;SDS011;56279;47.902;12.308;2022-08-21T01:16:05;3.85;;;1.98;;
69170;SDS011;56279;47.902;12.308;2022-08-21T01:18:28;3.15;;;1.70;;
69170;SDS011;56279;47.902;12.308;2022-08-21T01:20:30;3.70;;;1.87;;
69170;SDS011;56279;47.902;12.308;2022-08-21T01:22:32;4.82;;;2.20;;
69170;SDS011;56279;47.902;12.308;2022-08-21T01:24:36;4.28;;;2.58;;
69170;SDS011;56279;47.902;12.308;2022-08-21T07:30:19;3.70;;;1.98;;
69170;SDS011;56279;47.902;12.308;2022-08-21T07:50:32;3.83;;;1.90;;
69170;SDS011;56279;47.902;12.308;2022-08-21T07:52:34;4.53;;;2.40;;
69170;SDS011;56279;47.902;12.308;2022-08-21T07:54:37;3.40;;;1.83;;
69170;SDS011;56279;47.902;12.308;2022-08-21T07:57:03;3.92;;;1.70;;
69170;SDS011;56279;47.902;12.308;2022-08-21T08:00:09;3.03;;;1.77;;
69170;SDS011;56279;47.902;12.308;2022-08-21T08:45:58;3.38;;;2.08;;
69170;SDS011;56279;47.902;12.308;2022-08-21T08:48:14;5.55;;;2.10;;
69170;SDS011;56279;47.902;12.308;2022-08-21T08:50:48;5.18;;;2.10;;
69170;SDS011;56279;47.902;12.308;2022-08-21T09:03:58;4.40;;;1.95;;
69170;SDS011;56279;47.902;12.308;2022-08-21T09:06:28;4.20;;;1.90;;
69170;SDS011;56279;47.902;12.308;2022-08-21T09:08:47;3.80;;;2.20;;
69170;SDS011;56279;47.902;12.308;2022-08-21T09:11:14;6.38;;;2.28;;
69170;SDS011;56279;47.902;12.308;2022-08-21T09:16:08;5.25;;;2.20;;
69170;SDS011;56279;47.902;12.308;2022-08-21T09:21:08;4.68;;;2.17;;
69170;SDS011;56279;47.902;12.308;2022-08-21T09:25:39;4.65;;;1.95;;
69170;SDS011;56279;47.902;12.308;2022-08-21T09:27:46;5.07;;;2.10;;
69170;SDS011;56279;47.902;12.308;2022-08-21T09:29:49;5.90;;;2.20;;
69170;SDS011;56279;47.902;12.308;2022-08-21T09:32:15;3.22;;;1.65;;
69170;SDS011;56279;47.902;12.308;2022-08-21T10:37:46;5.00;;;2.60;;
69170;SDS011;56279;47.902;12.308;2022-08-21T10:50:03;4.97;;;2.03;;
69170;SDS011;56279;47.902;12.308;2022-08-21T10:52:29;3.75;;;1.88;;
69170;SDS011;56279;47.902;12.308;2022-08-21T10:54:41;4.57;;;2.20;;
69170;SDS011;56279;47.902;12.308;2022-08-21T10:57:06;3.75;;;2.08;;
69170;SDS011;56279;47.902;12.308;2022-08-21T11:07:30;3.92;;;1.90;;
69170;SDS011;56279;47.902;12.308;2022-08-21T11:09:40;3.75;;;1.98;;
69170;SDS011;56279;47.902;12.308;2022-08-21T11:11:55;4.07;;;1.70;;
69170;SDS011;56279;47.902;12.308;2022-08-21T11:14:09;3.35;;;1.80;;
69170;SDS011;56279;47.902;12.308;2022-08-21T11:16:41;4.03;;;2.25;;
69170;SDS011;56279;47.902;12.308;2022-08-21T11:18:57;4.32;;;2.10;;
69170;SDS011;56279;47.902;12.308;2022-08-21T11:23:41;3.93;;;1.97;;
69170;SDS011;56279;47.902;12.308;2022-08-21T11:26:00;5.25;;;2.35;;
69170;SDS011;56279;47.902;12.308;2022-08-21T11:28:29;4.20;;;2.22;;
69170;SDS011;56279;47.902;12.308;2022-08-21T11:33:31;3.15;;;1.92;;
69170;SDS011;56279;47.902;12.308;2022-08-21T11:44:56;5.47;;;2.75;;
69170;SDS011;56279;47.902;12.308;2022-08-21T11:48:03;4.10;;;2.00;;
69170;SDS011;56279;47.902;12.308;2022-08-21T11:50:15;3.97;;;1.80;;
69170;SDS011;56279;47.902;12.308;2022-08-21T12:22:16;3.80;;;1.80;;
69170;SDS011;56279;47.902;12.308;2022-08-21T12:30:37;4.15;;;2.30;;
69170;SDS011;56279;47.902;12.308;2022-08-21T12:35:53;3.15;;;1.90;;
69170;SDS011;56279;47.902;12.308;2022-08-21T12:45:02;3.05;;;1.90;;
69170;SDS011;56279;47.902;12.308;2022-08-21T12:47:33;5.57;;;2.65;;
69170;SDS011;56279;47.902;12.308;2022-08-21T12:53:40;4.75;;;2.28;;
69170;SDS011;56279;47.902;12.308;2022-08-21T12:55:37;5.10;;;2.23;;
69170;SDS011;56279;47.902;12.308;2022-08-21T13:25:47;3.47;;;2.05;;
69170;SDS011;56279;47.902;12.308;2022-08-21T13:28:16;5.23;;;2.10;;
69170;SDS011;56279;47.902;12.308;2022-08-21T13:30:31;5.28;;;2.05;;
69170;SDS011;56279;47.902;12.308;2022-08-21T13:35:28;4.20;;;2.30;;
69170;SDS011;56279;47.902;12.308;2022-08-21T13:37:33;6.03;;;2.30;;
69170;SDS011;56279;47.902;12.308;2022-08-21T13:40:06;4.33;;;2.40;;
69170;SDS011;56279;47.902;12.308;2022-08-21T13:42:30;5.35;;;2.17;;
69170;SDS011;56279;47.902;12.308;2022-08-21T13:45:20;4.72;;;2.30;;
69170;SDS011;56279;47.902;12.308;2022-08-21T13:48:23;4.55;;;2.20;;
69170;SDS011;56279;47.902;12.308;2022-08-21T13:50:35;5.32;;;2.50;;
69170;SDS011;56279;47.902;12.308;2022-08-21T13:53:06;4.03;;;2.20;;
69170;SDS011;56279;47.902;12.308;2022-08-21T13:55:38;5.03;;;2.38;;
69170;SDS011;56279;47.902;12.308;2022-08-21T13:58:00;4.50;;;2.50;;
69170;SDS011;56279;47.902;12.308;2022-08-21T14:00:10;4.35;;;2.10;;
69170;SDS011;56279;47.902;12.308;2022-08-21T14:02:26;3.95;;;2.40;;
69170;SDS011;56279;47.902;12.308;2022-08-21T14:04:37;4.00;;;2.17;;
69170;SDS011;56279;47.902;12.308;2022-08-21T14:06:52;4.47;;;2.10;;
69170;SDS011;56279;47.902;12.308;2022-08-21T14:08:58;3.75;;;2.28;;
69170;SDS011;56279;47.902;12.308;2022-08-21T14:11:11;4.05;;;2.50;;
69170;SDS011;56279;47.902;12.308;2022-08-21T14:15:45;4.13;;;2.40;;
69170;SDS011;56279;47.902;12.308;2022-08-21T14:20:33;5.38;;;2.58;;
69170;SDS011;56279;47.902;12.308;2022-08-21T14:24:48;5.65;;;2.63;;
69170;SDS011;56279;47.902;12.308;2022-08-21T14:26:57;4.57;;;2.30;;
69170;SDS011;56279;47.902;12.308;2022-08-21T14:29:16;4.80;;;2.67;;
69170;SDS011;56279;47.902;12.308;2022-08-21T14:31:53;4.45;;;2.45;;
69170;SDS011;56279;47.902;12.308;2022-08-21T14:34:47;4.95;;;2.45;;
69170;SDS011;56279;47.902;12.308;2022-08-21T14:37:06;5.22;;;2.40;;
69170;SDS011;56279;47.902;12.308;2022-08-21T14:44:32;4.32;;;2.42;;
69170;SDS011;56279;47.902;12.308;2022-08-21T14:51:52;4.37;;;2.10;;
69170;SDS011;56279;47.902;12.308;2022-08-21T14:54:13;5.63;;;2.42;;
69170;SDS011;56279;47.902;12.308;2022-08-21T14:56:17;3.75;;;2.10;;
69170;SDS011;56279;47.902;12.308;2022-08-21T14:58:21;4.50;;;2.22;;
69170;SDS011;56279;47.902;12.308;2022-08-21T15:00:24;4.72;;;2.30;;
69170;SDS011;56279;47.902;12.308;2022-08-21T15:02:37;4.03;;;2.20;;
69170;SDS011;56279;47.902;12.308;2022-08-21T15:07:31;4.73;;;2.50;;
69170;SDS011;56279;47.902;12.308;2022-08-21T15:09:42;5.00;;;2.60;;
69170;SDS011;56279;47.902;12.308;2022-08-21T15:11:46;5.32;;;2.67;;
69170;SDS011;56279;47.902;12.308;2022-08-21T15:14:06;6.55;;;2.55;;
69170;SDS011;56279;47.902;12.308;2022-08-21T15:18:42;4.20;;;2.47;;
69170;SDS011;56279;47.902;12.308;2022-08-21T15:20:47;4.00;;;2.38;;
69170;SDS011;56279;47.902;12.308;2022-08-21T15:23:19;4.28;;;2.40;;
69170;SDS011;56279;47.902;12.308;2022-08-21T15:29:17;4.60;;;2.60;;
69170;SDS011;56279;47.902;12.308;2022-08-21T15:31:28;3.93;;;2.40;;
69170;SDS011;56279;47.902;12.308;2022-08-21T15:43:26;4.45;;;2.60;;
69170;SDS011;56279;47.902;12.308;2022-08-21T15:45:42;5.90;;;2.53;;
69170;SDS011;56279;47.902;12.308;2022-08-21T15:47:49;5.65;;;2.47;;
69170;SDS011;56279;47.902;12.308;2022-08-21T15:49:54;7.93;;;2.90;;
69170;SDS011;56279;47.902;12.308;2022-08-21T15:52:04;4.05;;;2.40;;
69170;SDS011;56279;47.902;12.308;2022-08-21T15:54:12;5.20;;;3.05;;
69170;SDS011;56279;47.902;12.308;2022-08-21T15:56:23;5.57;;;2.27;;
69170;SDS011;56279;47.902;12.308;2022-08-21T15:59:52;4.40;;;2.20;;
69170;SDS011;56279;47.902;12.308;2022-08-21T16:03:16;4.20;;;2.20;;
69170;SDS011;56279;47.902;12.308;2022-08-21T16:05:52;3.70;;;1.95;;
69170;SDS011;56279;47.902;12.308;2022-08-21T16:57:20;4.47;;;2.30;;
69170;SDS011;56279;47.902;12.308;2022-08-21T16:59:37;4.10;;;2.23;;
69170;SDS011;56279;47.902;12.308;2022-08-21T17:02:58;4.65;;;2.35;;
69170;SDS011;56279;47.902;12.308;2022-08-21T17:17:16;4.40;;;2.60;;
69170;SDS011;56279;47.902;12.308;2022-08-21T17:27:48;7.30;;;2.50;;
69170;SDS011;56279;47.902;12.308;2022-08-21T17:30:13;5.95;;;2.80;;
69170;SDS011;56279;47.902;12.308;2022-08-21T17:32:43;4.13;;;2.40;;
69170;SDS011;56279;47.902;12.308;2022-08-21T17:35:12;5.47;;;2.85;;
69170;SDS011;56279;47.902;12.308;2022-08-21T17:37:19;4.33;;;2.60;;
69170;SDS011;56279;47.902;12.308;2022-08-21T17:39:33;4.90;;;2.88;;
69170;SDS011;56279;47.902;12.308;2022-08-21T17:41:41;5.70;;;2.88;;
69170;SDS011;56279;47.902;12.308;2022-08-21T17:44:17;4.70;;;2.70;;
69170;SDS011;56279;47.902;12.308;2022-08-21T17:49:07;4.47;;;2.73;;
69170;SDS011;56279;47.902;12.308;2022-08-21T17:51:48;4.82;;;2.60;;
69170;SDS011;56279;47.902;12.308;2022-08-21T17:54:11;5.32;;;2.90;;
69170;SDS011;56279;47.902;12.308;2022-08-21T17:56:30;4.03;;;2.60;;
69170;SDS011;56279;47.902;12.308;2022-08-21T17:58:33;4.32;;;2.45;;
69170;SDS011;56279;47.902;12.308;2022-08-21T18:01:07;6.60;;;2.73;;
69170;SDS011;56279;47.902;12.308;2022-08-21T18:03:12;5.90;;;2.60;;
69170;SDS011;56279;47.902;12.308;2022-08-21T18:05:21;7.45;;;2.70;;
69170;SDS011;56279;47.902;12.308;2022-08-21T18:07:34;4.72;;;2.58;;
69170;SDS011;56279;47.902;12.308;2022-08-21T18:09:48;6.78;;;2.40;;
69170;SDS011;56279;47.902;12.308;2022-08-21T18:12:08;7.33;;;3.70;;
69170;SDS011;56279;47.902;12.308;2022-08-21T18:14:13;9.65;;;5.03;;
69170;SDS011;56279;47.902;12.308;2022-08-21T18:16:15;11.55;;;4.60;;
69170;SDS011;56279;47.902;12.308;2022-08-21T18:21:27;5.30;;;3.28;;
69170;SDS011;56279;47.902;12.308;2022-08-21T18:23:35;5.20;;;2.57;;
69170;SDS011;56279;47.902;12.308;2022-08-21T18:25:44;5.20;;;2.80;;
69170;SDS011;56279;47.902;12.308;2022-08-21T18:27:50;6.05;;;2.60;;
69170;SDS011;56279;47.902;12.308;2022-08-21T18:29:54;5.68;;;3.10;;
69170;SDS011;56279;47.902;12.308;2022-08-21T18:31:59;5.95;;;2.67;;
69170;SDS011;56279;47.902;12.308;2022-08-21T18:34:03;5.50;;;2.70;;
69170;SDS011;56279;47.902;12.308;2022-08-21T18:36:12;5.40;;;3.00;;
69170;SDS011;56279;47.902;12.308;2022-08-21T18:38:16;4.97;;;3.05;;
69170;SDS011;56279;47.902;12.308;2022-08-21T18:40:21;6.03;;;2.78;;
69170;SDS011;56279;47.902;12.308;2022-08-21T18:42:25;6.75;;;2.92;;
69170;SDS011;56279;47.902;12.308;2022-08-21T18:44:42;5.17;;;2.60;;
69170;SDS011;56279;47.902;12.308;2022-08-21T18:47:00;5.57;;;3.08;;
69170;SDS011;56279;47.902;12.308;2022-08-21T18:49:16;5.78;;;2.75;;
69170;SDS011;56279;47.902;12.308;2022-08-21T18:51:30;5.00;;;3.20;;
69170;SDS011;56279;47.902;12.308;2022-08-21T18:53:53;4.65;;;2.90;;
69170;SDS011;56279;47.902;12.308;2022-08-21T18:56:03;6.00;;;2.80;;
69170;SDS011;56279;47.902;12.308;2022-08-21T18:58:12;4.82;;;2.83;;
69170;SDS011;56279;47.902;12.308;2022-08-21T19:00:20;4.93;;;2.33;;
69170;SDS011;56279;47.902;12.308;2022-08-21T19:02:28;8.00;;;3.15;;
69170;SDS011;56279;47.902;12.308;2022-08-21T19:08:31;5.23;;;3.03;;
69170;SDS011;56279;47.902;12.308;2022-08-21T19:10:53;5.28;;;2.88;;
69170;SDS011;56279;47.902;12.308;2022-08-21T19:13:11;5.78;;;3.05;;
69170;SDS011;56279;47.902;12.308;2022-08-21T19:16:21;4.90;;;2.72;;
69170;SDS011;56279;47.902;12.308;2022-08-21T19:18:25;4.78;;;3.05;;
69170;SDS011;56279;47.902;12.308;2022-08-21T19:20:31;5.87;;;2.60;;
69170;SDS011;56279;47.902;12.308;2022-08-21T19:25:40;5.85;;;2.88;;
69170;SDS011;56279;47.902;12.308;2022-08-21T19:27:44;5.18;;;2.72;;
69170;SDS011;56279;47.902;12.308;2022-08-21T19:29:47;6.05;;;2.97;;
69170;SDS011;56279;47.902;12.308;2022-08-21T19:31:59;5.53;;;3.00;;
69170;SDS011;56279;47.902;12.308;2022-08-21T19:37:12;5.80;;;3.03;;
69170;SDS011;56279;47.902;12.308;2022-08-21T19:39:16;6.35;;;3.47;;
69170;SDS011;56279;47.902;12.308;2022-08-21T19:41:21;5.70;;;3.05;;
69170;SDS011;56279;47.902;12.308;2022-08-21T19:46:41;5.18;;;2.78;;
69170;SDS011;56279;47.902;12.308;2022-08-21T19:48:47;6.78;;;3.63;;
69170;SDS011;56279;47.902;12.308;2022-08-21T19:50:49;4.70;;;3.00;;
69170;SDS011;56279;47.902;12.308;2022-08-21T19:52:50;6.45;;;2.85;;
69170;SDS011;56279;47.902;12.308;2022-08-21T19:54:52;6.90;;;3.20;;
69170;SDS011;56279;47.902;12.308;2022-08-21T19:56:54;10.20;;;3.38;;
69170;SDS011;56279;47.902;12.308;2022-08-21T19:58:58;5.70;;;3.00;;
69170;SDS011;56279;47.902;12.308;2022-08-21T20:01:07;5.55;;;3.15;;
69170;SDS011;56279;47.902;12.308;2022-08-21T20:03:10;5.35;;;3.20;;
69170;SDS011;56279;47.902;12.308;2022-08-21T20:05:11;5.60;;;3.27;;
69170;SDS011;56279;47.902;12.308;2022-08-21T20:07:15;4.65;;;2.78;;
69170;SDS011;56279;47.902;12.308;2022-08-21T20:09:18;5.63;;;3.25;;
69170;SDS011;56279;47.902;12.308;2022-08-21T20:11:33;5.93;;;3.60;;
69170;SDS011;56279;47.902;12.308;2022-08-21T20:13:37;6.13;;;3.40;;
69170;SDS011;56279;47.902;12.308;2022-08-21T20:15:42;4.63;;;2.83;;
69170;SDS011;56279;47.902;12.308;2022-08-21T20:17:47;5.25;;;2.88;;
69170;SDS011;56279;47.902;12.308;2022-08-21T20:19:49;5.60;;;3.28;;
69170;SDS011;56279;47.902;12.308;2022-08-21T20:21:53;6.95;;;3.55;;
69170;SDS011;56279;47.902;12.308;2022-08-21T20:23:55;7.15;;;3.22;;
69170;SDS011;56279;47.902;12.308;2022-08-21T20:25:59;5.57;;;2.90;;
69170;SDS011;56279;47.902;12.308;2022-08-21T20:28:04;5.35;;;2.90;;
69170;SDS011;56279;47.902;12.308;2022-08-21T20:30:14;5.63;;;3.22;;
69170;SDS011;56279;47.902;12.308;2022-08-21T20:32:21;7.63;;;3.42;;
69170;SDS011;56279;47.902;12.308;2022-08-21T20:34:23;6.40;;;3.17;;
69170;SDS011;56279;47.902;12.308;2022-08-21T20:36:24;5.03;;;3.10;;
69170;SDS011;56279;47.902;12.308;2022-08-21T20:38:26;6.45;;;3.08;;
69170;SDS011;56279;47.902;12.308;2022-08-21T20:40:31;6.03;;;3.67;;
69170;SDS011;56279;47.902;12.308;2022-08-21T20:42:38;5.60;;;3.05;;
69170;SDS011;56279;47.902;12.308;2022-08-21T20:44:42;5.65;;;3.17;;
69170;SDS011;56279;47.902;12.308;2022-08-21T20:46:44;4.90;;;2.93;;
69170;SDS011;56279;47.902;12.308;2022-08-21T20:48:48;6.07;;;2.97;;
69170;SDS011;56279;47.902;12.308;2022-08-21T20:51:09;5.60;;;3.28;;
69170;SDS011;56279;47.902;12.308;2022-08-21T20:55:40;6.28;;;3.70;;
69170;SDS011;56279;47.902;12.308;2022-08-21T20:57:49;7.57;;;3.33;;
69170;SDS011;56279;47.902;12.308;2022-08-21T21:00:04;6.47;;;3.42;;
69170;SDS011;56279;47.902;12.308;2022-08-21T21:04:50;6.32;;;3.42;;
69170;SDS011;56279;47.902;12.308;2022-08-21T21:06:58;7.60;;;2.80;;
69170;SDS011;56279;47.902;12.308;2022-08-21T21:11:20;5.88;;;3.38;;
69170;SDS011;56279;47.902;12.308;2022-08-21T21:13:32;6.07;;;3.08;;
69170;SDS011;56279;47.902;12.308;2022-08-21T21:20:33;7.53;;;3.40;;
69170;SDS011;56279;47.902;12.308;2022-08-21T21:22:39;7.38;;;3.20;;
69170;SDS011;56279;47.902;12.308;2022-08-21T21:25:07;6.03;;;3.38;;
69170;SDS011;56279;47.902;12.308;2022-08-21T21:29:24;4.88;;;2.90;;
69170;SDS011;56279;47.902;12.308;2022-08-21T21:31:32;5.60;;;3.07;;
69170;SDS011;56279;47.902;12.308;2022-08-21T21:33:40;5.32;;;3.13;;
69170;SDS011;56279;47.902;12.308;2022-08-21T21:35:50;6.88;;;3.22;;
69170;SDS011;56279;47.902;12.308;2022-08-21T21:38:00;6.28;;;3.55;;
69170;SDS011;56279;47.902;12.308;2022-08-21T21:40:18;4.68;;;3.00;;
69170;SDS011;56279;47.902;12.308;2022-08-21T21:45:16;7.30;;;3.08;;
69170;SDS011;56279;47.902;12.308;2022-08-21T21:50:05;5.45;;;3.00;;
69170;SDS011;56279;47.902;12.308;2022-08-21T22:00:00;6.43;;;3.08;;
69170;SDS011;56279;47.902;12.308;2022-08-21T22:07:14;6.53;;;3.23;;
69170;SDS011;56279;47.902;12.308;2022-08-21T22:09:39;6.85;;;3.47;;
69170;SDS011;56279;47.902;12.308;2022-08-21T22:12:02;5.85;;;3.50;;
69170;SDS011;56279;47.902;12.308;2022-08-21T22:14:18;5.43;;;3.05;;
69170;SDS011;56279;47.902;12.308;2022-08-21T22:16:20;6.88;;;3.28;;
69170;SDS011;56279;47.902;12.308;2022-08-21T22:18:24;6.20;;;3.40;;
69170;SDS011;56279;47.902;12.308;2022-08-21T22:20:47;4.90;;;2.85;;
69170;SDS011;56279;47.902;12.308;2022-08-21T22:23:09;5.35;;;3.20;;
69170;SDS011;56279;47.902;12.308;2022-08-21T22:25:20;7.10;;;3.45;;
69170;SDS011;56279;47.902;12.308;2022-08-21T22:27:28;6.00;;;3.40;;
69170;SDS011;56279;47.902;12.308;2022-08-21T22:29:41;5.57;;;3.10;;
69170;SDS011;56279;47.902;12.308;2022-08-21T22:32:02;5.30;;;2.97;;
69170;SDS011;56279;47.902;12.308;2022-08-21T22:34:10;7.65;;;3.15;;
69170;SDS011;56279;47.902;12.308;2022-08-21T22:36:19;4.95;;;3.15;;
69170;SDS011;56279;47.902;12.308;2022-08-21T22:38:29;4.40;;;2.85;;
69170;SDS011;56279;47.902;12.308;2022-08-21T22:40:39;5.50;;;2.97;;
69170;SDS011;56279;47.902;12.308;2022-08-21T22:42:43;4.80;;;2.80;;
69170;SDS011;56279;47.902;12.308;2022-08-21T22:48:36;5.38;;;2.92;;
69170;SDS011;56279;47.902;12.308;2022-08-21T22:50:40;5.47;;;2.80;;
69170;SDS011;56279;47.902;12.308;2022-08-21T22:53:00;5.30;;;3.20;;
69170;SDS011;56279;47.902;12.308;2022-08-21T22:55:29;5.40;;;2.75;;
69170;SDS011;56279;47.902;12.308;2022-08-21T22:58:10;6.40;;;3.20;;
69170;SDS011;56279;47.902;12.308;2022-08-21T23:00:38;6.82;;;3.08;;
69170;SDS011;56279;47.902;12.308;2022-08-21T23:02:54;5.78;;;2.90;;
69170;SDS011;56279;47.902;12.308;2022-08-21T23:05:03;5.50;;;3.17;;
69170;SDS011;56279;47.902;12.308;2022-08-21T23:07:33;5.35;;;2.92;;
69170;SDS011;56279;47.902;12.308;2022-08-21T23:09:46;5.63;;;3.42;;
69170;SDS011;56279;47.902;12.308;2022-08-21T23:11:51;7.68;;;3.40;;
69170;SDS011;56279;47.902;12.308;2022-08-21T23:13:58;4.82;;;2.90;;
